sensor_id;sensor_type;location;lat;lon;timestamp;pressure;altitude;pressure_sealevel;temperature;humidity
52745;BME280;38637;49.984;20.426;2023-11-21T00:00:24;98457.25;;;8.84;100.00
52745;BME280;38637;49.984;20.426;2023-11-21T00:02:50;98456.16;;;8.80;100.00
52745;BME280;38637;49.984;20.426;2023-11-21T00:05:15;98456.41;;;8.78;100.00
52745;BME280;38637;49.984;20.426;2023-11-21T00:07:42;98444.47;;;8.79;100.00
52745;BME280;38637;49.984;20.426;2023-11-21T00:10:08;98453.69;;;8.78;100.00
52745;BME280;38637;49.984;20.426;2023-11-21T00:12:35;98459.44;;;8.77;100.00
52745;BME280;38637;49.984;20.426;2023-11-21T00:15:00;98465.69;;;8.77;100.00
52745;BME280;38637;49.984;20.426;2023-11-21T00:17:27;98463.50;;;8.74;100.00
52745;BME280;38637;49.984;20.426;2023-11-21T00:19:52;98458.88;;;8.74;100.00
52745;BME280;38637;49.984;20.426;2023-11-21T00:22:18;98466.78;;;8.71;100.00
52745;BME280;38637;49.984;20.426;2023-11-21T00:24:44;98468.13;;;8.73;100.00
52745;BME280;38637;49.984;20.426;2023-11-21T00:27:09;98470.31;;;8.71;100.00
52745;BME280;38637;49.984;20.426;2023-11-21T00:29:35;98470.56;;;8.75;100.00
52745;BME280;38637;49.984;20.426;2023-11-21T00:32:00;98476.84;;;8.76;100.00
52745;BME280;38637;49.984;20.426;2023-11-21T00:34:26;98471.41;;;8.76;100.00
52745;BME280;38637;49.984;20.426;2023-11-21T00:36:51;98472.22;;;8.76;100.00
52745;BME280;38637;49.984;20.426;2023-11-21T00:39:16;98473.28;;;8.75;100.00
52745;BME280;38637;49.984;20.426;2023-11-21T00:41:42;98481.47;;;8.75;100.00
52745;BME280;38637;49.984;20.426;2023-11-21T00:44:07;98489.09;;;8.73;100.00
52745;BME280;38637;49.984;20.426;2023-11-21T00:46:33;98480.38;;;8.71;100.00
52745;BME280;38637;49.984;20.426;2023-11-21T00:48:58;98472.22;;;8.71;100.00
52745;BME280;38637;49.984;20.426;2023-11-21T00:51:24;98478.22;;;8.73;100.00
52745;BME280;38637;49.984;20.426;2023-11-21T00:53:49;98474.13;;;8.70;100.00
52745;BME280;38637;49.984;20.426;2023-11-21T00:56:15;98462.97;;;8.67;100.00
52745;BME280;38637;49.984;20.426;2023-11-21T00:58:40;98472.75;;;8.68;100.00
52745;BME280;38637;49.984;20.426;2023-11-21T01:01:09;98462.97;;;8.67;100.00
52745;BME280;38637;49.984;20.426;2023-11-21T01:03:34;98458.34;;;8.67;100.00
52745;BME280;38637;49.984;20.426;2023-11-21T01:05:59;98464.88;;;8.66;100.00
52745;BME280;38637;49.984;20.426;2023-11-21T01:08:25;98458.59;;;8.66;100.00
52745;BME280;38637;49.984;20.426;2023-11-21T01:10:50;98452.91;;;8.57;100.00
52745;BME280;38637;49.984;20.426;2023-11-21T01:13:16;98467.03;;;8.59;100.00
52745;BME280;38637;49.984;20.426;2023-11-21T01:15:41;98473.56;;;8.58;100.00
52745;BME280;38637;49.984;20.426;2023-11-21T01:18:07;98465.69;;;8.51;100.00
52745;BME280;38637;49.984;20.426;2023-11-21T01:20:34;98466.75;;;8.50;100.00
52745;BME280;38637;49.984;20.426;2023-11-21T01:22:59;98475.75;;;8.51;100.00
52745;BME280;38637;49.984;20.426;2023-11-21T01:25:25;98479.53;;;8.50;100.00
52745;BME280;38637;49.984;20.426;2023-11-21T01:27:51;98479.81;;;8.54;100.00
52745;BME280;38637;49.984;20.426;2023-11-21T01:30:17;98479.81;;;8.48;100.00
52745;BME280;38637;49.984;20.426;2023-11-21T01:32:42;98477.09;;;8.48;100.00
52745;BME280;38637;49.984;20.426;2023-11-21T01:35:09;98466.47;;;8.42;100.00
52745;BME280;38637;49.984;20.426;2023-11-21T01:37:35;98471.66;;;8.48;100.00
52745;BME280;38637;49.984;20.426;2023-11-21T01:40:01;98479.53;;;8.50;100.00
52745;BME280;38637;49.984;20.426;2023-11-21T01:42:27;98478.47;;;8.51;100.00
52745;BME280;38637;49.984;20.426;2023-11-21T01:44:54;98484.44;;;8.53;100.00
52745;BME280;38637;49.984;20.426;2023-11-21T01:47:20;98469.47;;;8.45;100.00
52745;BME280;38637;49.984;20.426;2023-11-21T01:49:46;98481.97;;;8.57;100.00
52745;BME280;38637;49.984;20.426;2023-11-21T01:52:12;98481.19;;;8.56;100.00
52745;BME280;38637;49.984;20.426;2023-11-21T01:54:38;98479.56;;;8.60;100.00
52745;BME280;38637;49.984;20.426;2023-11-21T01:57:05;98481.19;;;8.61;100.00
52745;BME280;38637;49.984;20.426;2023-11-21T01:59:36;98473.84;;;8.62;100.00
52745;BME280;38637;49.984;20.426;2023-11-21T02:02:05;98478.47;;;8.61;100.00
52745;BME280;38637;49.984;20.426;2023-11-21T02:04:35;98483.63;;;8.63;100.00
52745;BME280;38637;49.984;20.426;2023-11-21T02:07:04;98477.66;;;8.66;100.00
52745;BME280;38637;49.984;20.426;2023-11-21T02:09:33;98465.69;;;8.67;100.00
52745;BME280;38637;49.984;20.426;2023-11-21T02:12:00;98480.09;;;8.67;100.00
52745;BME280;38637;49.984;20.426;2023-11-21T02:14:26;98485.56;;;8.67;100.00
52745;BME280;38637;49.984;20.426;2023-11-21T02:16:53;98479.28;;;8.67;100.00
52745;BME280;38637;49.984;20.426;2023-11-21T02:19:19;98481.72;;;8.68;100.00
52745;BME280;38637;49.984;20.426;2023-11-21T02:21:53;98491.00;;;8.67;100.00
52745;BME280;38637;49.984;20.426;2023-11-21T02:24:23;98491.00;;;8.67;100.00
52745;BME280;38637;49.984;20.426;2023-11-21T02:26:48;98502.44;;;8.69;100.00
52745;BME280;38637;49.984;20.426;2023-11-21T02:29:17;98481.47;;;8.70;100.00
52745;BME280;38637;49.984;20.426;2023-11-21T02:31:44;98495.91;;;8.70;100.00
52745;BME280;38637;49.984;20.426;2023-11-21T02:34:16;98491.81;;;8.73;100.00
52745;BME280;38637;49.984;20.426;2023-11-21T02:36:42;98488.28;;;8.72;100.00
52745;BME280;38637;49.984;20.426;2023-11-21T02:39:08;98495.09;;;8.70;100.00
52745;BME280;38637;49.984;20.426;2023-11-21T02:41:34;98491.56;;;8.69;100.00
52745;BME280;38637;49.984;20.426;2023-11-21T02:44:00;98495.09;;;8.70;100.00
52745;BME280;38637;49.984;20.426;2023-11-21T02:46:25;98486.38;;;8.68;100.00
52745;BME280;38637;49.984;20.426;2023-11-21T02:48:51;98489.91;;;8.68;100.00
52745;BME280;38637;49.984;20.426;2023-11-21T02:51:18;98487.97;;;8.69;100.00
52745;BME280;38637;49.984;20.426;2023-11-21T02:53:44;98492.38;;;8.70;100.00
52745;BME280;38637;49.984;20.426;2023-11-21T02:56:09;98490.44;;;8.70;100.00
52745;BME280;38637;49.984;20.426;2023-11-21T02:58:34;98488.53;;;8.71;100.00
52745;BME280;38637;49.984;20.426;2023-11-21T03:01:00;98484.72;;;8.72;100.00
52745;BME280;38637;49.984;20.426;2023-11-21T03:03:25;98486.09;;;8.74;100.00
52745;BME280;38637;49.984;20.426;2023-11-21T03:05:51;98487.19;;;8.73;100.00
52745;BME280;38637;49.984;20.426;2023-11-21T03:08:16;98489.09;;;8.73;100.00
52745;BME280;38637;49.984;20.426;2023-11-21T03:10:41;98488.81;;;8.69;100.00
52745;BME280;38637;49.984;20.426;2023-11-21T03:13:07;98505.16;;;8.69;100.00
52745;BME280;38637;49.984;20.426;2023-11-21T03:15:33;98497.81;;;8.70;100.00
52745;BME280;38637;49.984;20.426;2023-11-21T03:18:00;98514.13;;;8.65;100.00
52745;BME280;38637;49.984;20.426;2023-11-21T03:20:25;98511.69;;;8.63;100.00
52745;BME280;38637;49.984;20.426;2023-11-21T03:22:50;98502.69;;;8.63;100.00
52745;BME280;38637;49.984;20.426;2023-11-21T03:25:16;98505.41;;;8.63;100.00
52745;BME280;38637;49.984;20.426;2023-11-21T03:27:42;98511.13;;;8.61;100.00
52745;BME280;38637;49.984;20.426;2023-11-21T03:30:09;98495.31;;;8.53;100.00
52745;BME280;38637;49.984;20.426;2023-11-21T03:32:36;98498.88;;;8.59;100.00
52745;BME280;38637;49.984;20.426;2023-11-21T03:35:01;98494.25;;;8.59;100.00
52745;BME280;38637;49.984;20.426;2023-11-21T03:37:27;98482.25;;;8.50;100.00
52745;BME280;38637;49.984;20.426;2023-11-21T03:39:54;98493.44;;;8.59;100.00
52745;BME280;38637;49.984;20.426;2023-11-21T03:42:20;98502.41;;;8.59;100.00
52745;BME280;38637;49.984;20.426;2023-11-21T03:44:45;98493.41;;;8.54;100.00
52745;BME280;38637;49.984;20.426;2023-11-21T03:47:11;98502.97;;;8.61;100.00
52745;BME280;38637;49.984;20.426;2023-11-21T03:49:37;98499.16;;;8.62;100.00
52745;BME280;38637;49.984;20.426;2023-11-21T03:52:03;98498.88;;;8.64;100.00
52745;BME280;38637;49.984;20.426;2023-11-21T03:54:28;98510.03;;;8.62;100.00
52745;BME280;38637;49.984;20.426;2023-11-21T03:56:53;98486.34;;;8.52;100.00
52745;BME280;38637;49.984;20.426;2023-11-21T03:59:19;98509.22;;;8.62;100.00
52745;BME280;38637;49.984;20.426;2023-11-21T04:01:44;98505.69;;;8.61;100.00
52745;BME280;38637;49.984;20.426;2023-11-21T04:04:09;98500.22;;;8.56;100.00
52745;BME280;38637;49.984;20.426;2023-11-21T04:06:35;98508.41;;;8.61;100.00
52745;BME280;38637;49.984;20.426;2023-11-21T04:09:02;98514.94;;;8.60;100.00
52745;BME280;38637;49.984;20.426;2023-11-21T04:11:29;98514.66;;;8.62;100.00
52745;BME280;38637;49.984;20.426;2023-11-21T04:13:55;98522.25;;;8.60;100.00
52745;BME280;38637;49.984;20.426;2023-11-21T04:16:20;98513.28;;;8.59;100.00
52745;BME280;38637;49.984;20.426;2023-11-21T04:18:45;98522.81;;;8.62;100.00
52745;BME280;38637;49.984;20.426;2023-11-21T04:21:11;98517.66;;;8.60;100.00
52745;BME280;38637;49.984;20.426;2023-11-21T04:23:37;98514.09;;;8.60;100.00
52745;BME280;38637;49.984;20.426;2023-11-21T04:26:02;98522.25;;;8.60;100.00
52745;BME280;38637;49.984;20.426;2023-11-21T04:28:28;98520.09;;;8.62;100.00
52745;BME280;38637;49.984;20.426;2023-11-21T04:30:53;98516.56;;;8.61;100.00
52745;BME280;38637;49.984;20.426;2023-11-21T04:33:19;98519.28;;;8.61;100.00
52745;BME280;38637;49.984;20.426;2023-11-21T04:35:44;98519.00;;;8.63;100.00
52745;BME280;38637;49.984;20.426;2023-11-21T04:38:10;98521.75;;;8.58;100.00
52745;BME280;38637;49.984;20.426;2023-11-21T04:40:35;98513.56;;;8.58;100.00
52745;BME280;38637;49.984;20.426;2023-11-21T04:43:00;98509.75;;;8.59;100.00
52745;BME280;38637;49.984;20.426;2023-11-21T04:45:26;98513.28;;;8.59;100.00
52745;BME280;38637;49.984;20.426;2023-11-21T04:47:52;98521.44;;;8.59;100.00
52745;BME280;38637;49.984;20.426;2023-11-21T04:50:18;98511.94;;;8.51;100.00
52745;BME280;38637;49.984;20.426;2023-11-21T04:52:43;98513.81;;;8.56;100.00
52745;BME280;38637;49.984;20.426;2023-11-21T04:55:09;98523.34;;;8.54;100.00
52745;BME280;38637;49.984;20.426;2023-11-21T04:57:38;98528.25;;;8.57;100.00
52745;BME280;38637;49.984;20.426;2023-11-21T05:00:07;98530.69;;;8.53;100.00
52745;BME280;38637;49.984;20.426;2023-11-21T05:02:32;98529.34;;;8.56;100.00
52745;BME280;38637;49.984;20.426;2023-11-21T05:04:59;98526.91;;;8.54;100.00
52745;BME280;38637;49.984;20.426;2023-11-21T05:07:25;98530.44;;;8.55;100.00
52745;BME280;38637;49.984;20.426;2023-11-21T05:09:52;98525.78;;;8.50;100.00
52745;BME280;38637;49.984;20.426;2023-11-21T05:12:17;98537.75;;;8.49;100.00
52745;BME280;38637;49.984;20.426;2023-11-21T05:14:43;98539.94;;;8.47;100.00
52745;BME280;38637;49.984;20.426;2023-11-21T05:17:08;98540.75;;;8.47;100.00
52745;BME280;38637;49.984;20.426;2023-11-21T05:19:34;98527.41;;;8.46;100.00
52745;BME280;38637;49.984;20.426;2023-11-21T05:22:00;98539.94;;;8.47;100.00
52745;BME280;38637;49.984;20.426;2023-11-21T05:24:26;98549.19;;;8.46;100.00
52745;BME280;38637;49.984;20.426;2023-11-21T05:26:51;98541.84;;;8.46;100.00
52745;BME280;38637;49.984;20.426;2023-11-21T05:29:18;98546.47;;;8.46;100.00
52745;BME280;38637;49.984;20.426;2023-11-21T05:31:43;98552.72;;;8.46;100.00
52745;BME280;38637;49.984;20.426;2023-11-21T05:34:09;98557.34;;;8.46;100.00
52745;BME280;38637;49.984;20.426;2023-11-21T05:36:34;98558.44;;;8.45;100.00
52745;BME280;38637;49.984;20.426;2023-11-21T05:38:59;98561.16;;;8.45;100.00
52745;BME280;38637;49.984;20.426;2023-11-21T05:41:25;98571.50;;;8.43;100.00
52745;BME280;38637;49.984;20.426;2023-11-21T05:43:51;98564.97;;;8.39;100.00
52745;BME280;38637;49.984;20.426;2023-11-21T05:46:16;98554.56;;;8.31;100.00
52745;BME280;38637;49.984;20.426;2023-11-21T05:48:41;98565.44;;;8.31;100.00
52745;BME280;38637;49.984;20.426;2023-11-21T05:51:07;98566.81;;;8.33;100.00
52745;BME280;38637;49.984;20.426;2023-11-21T05:53:37;98572.25;;;8.33;100.00
52745;BME280;38637;49.984;20.426;2023-11-21T05:56:03;98578.50;;;8.34;100.00
52745;BME280;38637;49.984;20.426;2023-11-21T05:58:29;98577.41;;;8.35;100.00
52745;BME280;38637;49.984;20.426;2023-11-21T06:00:54;98583.38;;;8.32;100.00
52745;BME280;38637;49.984;20.426;2023-11-21T06:03:19;98577.66;;;8.28;100.00
52745;BME280;38637;49.984;20.426;2023-11-21T06:05:45;98584.44;;;8.25;100.00
52745;BME280;38637;49.984;20.426;2023-11-21T06:08:10;98592.88;;;8.24;100.00
52745;BME280;38637;49.984;20.426;2023-11-21T06:10:36;98592.06;;;8.23;100.00
52745;BME280;38637;49.984;20.426;2023-11-21T06:13:01;98594.25;;;8.26;100.00
52745;BME280;38637;49.984;20.426;2023-11-21T06:15:26;98598.06;;;8.31;100.00
52745;BME280;38637;49.984;20.426;2023-11-21T06:17:52;98598.31;;;8.29;100.00
52745;BME280;38637;49.984;20.426;2023-11-21T06:20:18;98605.13;;;8.26;100.00
52745;BME280;38637;49.984;20.426;2023-11-21T06:22:46;98608.09;;;8.25;100.00
52745;BME280;38637;49.984;20.426;2023-11-21T06:25:13;98609.44;;;8.22;100.00
52745;BME280;38637;49.984;20.426;2023-11-21T06:27:40;98604.28;;;8.21;100.00
52745;BME280;38637;49.984;20.426;2023-11-21T06:30:07;98611.06;;;8.18;100.00
52745;BME280;38637;49.984;20.426;2023-11-21T06:32:34;98615.41;;;8.14;100.00
52745;BME280;38637;49.984;20.426;2023-11-21T06:35:01;98614.03;;;8.17;100.00
52745;BME280;38637;49.984;20.426;2023-11-21T06:37:28;98615.94;;;8.16;100.00
52745;BME280;38637;49.984;20.426;2023-11-21T06:39:54;98629.81;;;8.15;100.00
52745;BME280;38637;49.984;20.426;2023-11-21T06:42:20;98628.19;;;8.19;100.00
52745;BME280;38637;49.984;20.426;2023-11-21T06:44:46;98615.66;;;8.13;100.00
52745;BME280;38637;49.984;20.426;2023-11-21T06:47:12;98632.53;;;8.20;100.00
52745;BME280;38637;49.984;20.426;2023-11-21T06:49:37;98638.50;;;8.17;100.00
52745;BME280;38637;49.984;20.426;2023-11-21T06:52:04;98633.91;;;8.17;100.00
52745;BME280;38637;49.984;20.426;2023-11-21T06:54:31;98633.91;;;8.17;100.00
52745;BME280;38637;49.984;20.426;2023-11-21T06:56:56;98633.69;;;8.24;100.00
52745;BME280;38637;49.984;20.426;2023-11-21T06:59:22;98644.84;;;8.27;100.00
52745;BME280;38637;49.984;20.426;2023-11-21T07:01:47;98641.84;;;8.29;100.00
52745;BME280;38637;49.984;20.426;2023-11-21T07:04:13;98648.94;;;8.30;100.00
52745;BME280;38637;49.984;20.426;2023-11-21T07:06:38;98648.66;;;8.32;100.00
52745;BME280;38637;49.984;20.426;2023-11-21T07:09:04;98648.94;;;8.35;100.00
52745;BME280;38637;49.984;20.426;2023-11-21T07:11:29;98648.94;;;8.35;100.00
52745;BME280;38637;49.984;20.426;2023-11-21T07:13:54;98646.50;;;8.34;100.00
52745;BME280;38637;49.984;20.426;2023-11-21T07:16:20;98643.50;;;8.35;100.00
52745;BME280;38637;49.984;20.426;2023-11-21T07:18:46;98654.72;;;8.39;100.00
52745;BME280;38637;49.984;20.426;2023-11-21T07:21:11;98652.81;;;8.39;100.00
52745;BME280;38637;49.984;20.426;2023-11-21T07:23:37;98666.63;;;8.38;100.00
52745;BME280;38637;49.984;20.426;2023-11-21T07:26:03;98653.56;;;8.35;100.00
52745;BME280;38637;49.984;20.426;2023-11-21T07:28:34;98654.91;;;8.32;100.00
52745;BME280;38637;49.984;20.426;2023-11-21T07:30:59;98665.53;;;8.34;100.00
52745;BME280;38637;49.984;20.426;2023-11-21T07:33:25;98666.34;;;8.34;100.00
52745;BME280;38637;49.984;20.426;2023-11-21T07:35:50;98673.44;;;8.35;100.00
52745;BME280;38637;49.984;20.426;2023-11-21T07:38:17;98669.38;;;8.38;100.00
52745;BME280;38637;49.984;20.426;2023-11-21T07:40:43;98665.00;;;8.37;100.00
52745;BME280;38637;49.984;20.426;2023-11-21T07:43:08;98669.16;;;8.39;100.00
52745;BME280;38637;49.984;20.426;2023-11-21T07:45:34;98672.16;;;8.43;100.00
52745;BME280;38637;49.984;20.426;2023-11-21T07:47:59;98678.69;;;8.47;100.00
52745;BME280;38637;49.984;20.426;2023-11-21T07:50:28;98660.38;;;8.37;100.00
52745;BME280;38637;49.984;20.426;2023-11-21T07:52:54;98670.00;;;8.45;100.00
52745;BME280;38637;49.984;20.426;2023-11-21T07:55:19;98665.91;;;8.47;100.00
52745;BME280;38637;49.984;20.426;2023-11-21T07:57:45;98666.75;;;8.48;100.00
52745;BME280;38637;49.984;20.426;2023-11-21T08:00:11;98667.81;;;8.47;100.00
52745;BME280;38637;49.984;20.426;2023-11-21T08:02:37;98670.81;;;8.50;100.00
52745;BME280;38637;49.984;20.426;2023-11-21T08:05:03;98668.94;;;8.56;100.00
52745;BME280;38637;49.984;20.426;2023-11-21T08:07:29;98673.28;;;8.52;100.00
52745;BME280;38637;49.984;20.426;2023-11-21T08:09:54;98668.66;;;8.52;100.00
52745;BME280;38637;49.984;20.426;2023-11-21T08:12:19;98669.47;;;8.53;100.00
52745;BME280;38637;49.984;20.426;2023-11-21T08:14:45;98679.28;;;8.54;100.00
52745;BME280;38637;49.984;20.426;2023-11-21T08:17:11;98676.28;;;8.56;100.00
52745;BME280;38637;49.984;20.426;2023-11-21T08:19:36;98674.66;;;8.60;100.00
52745;BME280;38637;49.984;20.426;2023-11-21T08:22:03;98679.31;;;8.64;100.00
52745;BME280;38637;49.984;20.426;2023-11-21T08:24:28;98687.72;;;8.63;100.00
52745;BME280;38637;49.984;20.426;2023-11-21T08:26:54;98674.69;;;8.65;100.00
52745;BME280;38637;49.984;20.426;2023-11-21T08:29:19;98679.03;;;8.66;100.00
52745;BME280;38637;49.984;20.426;2023-11-21T08:31:45;98686.66;;;8.69;100.00
52745;BME280;38637;49.984;20.426;2023-11-21T08:34:12;98689.91;;;8.66;100.00
52745;BME280;38637;49.984;20.426;2023-11-21T08:36:42;98691.59;;;8.67;100.00
52745;BME280;38637;49.984;20.426;2023-11-21T08:39:08;98689.09;;;8.60;100.00
52745;BME280;38637;49.984;20.426;2023-11-21T08:41:34;98693.69;;;8.55;100.00
52745;BME280;38637;49.984;20.426;2023-11-21T08:44:00;98687.97;;;8.51;100.00
52745;BME280;38637;49.984;20.426;2023-11-21T08:46:25;98696.44;;;8.55;100.00
52745;BME280;38637;49.984;20.426;2023-11-21T08:48:51;98699.16;;;8.60;100.00
52745;BME280;38637;49.984;20.426;2023-11-21T08:51:17;98701.63;;;8.61;100.00
52745;BME280;38637;49.984;20.426;2023-11-21T08:53:43;98710.06;;;8.65;100.00
52745;BME280;38637;49.984;20.426;2023-11-21T08:56:14;98710.09;;;8.70;100.00
52745;BME280;38637;49.984;20.426;2023-11-21T08:58:40;98711.19;;;8.74;100.00
52745;BME280;38637;49.984;20.426;2023-11-21T09:01:06;98714.72;;;8.74;100.00
52745;BME280;38637;49.984;20.426;2023-11-21T09:03:32;98714.72;;;8.74;100.00
52745;BME280;38637;49.984;20.426;2023-11-21T09:05:59;98716.59;;;8.69;100.00
52745;BME280;38637;49.984;20.426;2023-11-21T09:08:25;98709.00;;;8.71;100.00
52745;BME280;38637;49.984;20.426;2023-11-21T09:10:50;98710.91;;;8.70;100.00
52745;BME280;38637;49.984;20.426;2023-11-21T09:13:17;98711.72;;;8.71;100.00
52745;BME280;38637;49.984;20.426;2023-11-21T09:15:43;98710.94;;;8.76;100.00
52745;BME280;38637;49.984;20.426;2023-11-21T09:18:14;98710.66;;;8.77;100.00
52745;BME280;38637;49.984;20.426;2023-11-21T09:20:40;98714.72;;;8.69;100.00
52745;BME280;38637;49.984;20.426;2023-11-21T09:23:06;98705.44;;;8.65;100.00
52745;BME280;38637;49.984;20.426;2023-11-21T09:25:32;98702.75;;;8.70;100.00
52745;BME280;38637;49.984;20.426;2023-11-21T09:27:58;98702.22;;;8.73;100.00
52745;BME280;38637;49.984;20.426;2023-11-21T09:30:23;98700.59;;;8.78;100.00
52745;BME280;38637;49.984;20.426;2023-11-21T09:32:50;98706.34;;;8.86;100.00
52745;BME280;38637;49.984;20.426;2023-11-21T09:35:16;98699.56;;;8.89;100.00
52745;BME280;38637;49.984;20.426;2023-11-21T09:37:46;98708.00;;;8.92;100.00
52745;BME280;38637;49.984;20.426;2023-11-21T09:40:12;98707.19;;;8.92;100.00
52745;BME280;38637;49.984;20.426;2023-11-21T09:42:40;98706.09;;;8.93;100.00
52745;BME280;38637;49.984;20.426;2023-11-21T09:45:15;98704.19;;;8.93;100.00
52745;BME280;38637;49.984;20.426;2023-11-21T09:47:43;98708.28;;;8.96;100.00
52745;BME280;38637;49.984;20.426;2023-11-21T09:50:09;98703.13;;;9.00;100.00
52745;BME280;38637;49.984;20.426;2023-11-21T09:55:36;98704.22;;;8.98;100.00
52745;BME280;38637;49.984;20.426;2023-11-21T09:58:04;98708.56;;;9.00;100.00
52745;BME280;38637;49.984;20.426;2023-11-21T10:00:33;98703.69;;;9.02;100.00
52745;BME280;38637;49.984;20.426;2023-11-21T10:02:59;98710.47;;;8.99;100.00
52745;BME280;38637;49.984;20.426;2023-11-21T10:05:25;98708.84;;;8.98;100.00
52745;BME280;38637;49.984;20.426;2023-11-21T10:07:52;98707.22;;;9.02;100.00
52745;BME280;38637;49.984;20.426;2023-11-21T10:10:19;98712.94;;;9.06;100.00
52745;BME280;38637;49.984;20.426;2023-11-21T10:12:50;98711.03;;;9.01;100.00
52745;BME280;38637;49.984;20.426;2023-11-21T10:15:21;98712.94;;;9.01;100.00
52745;BME280;38637;49.984;20.426;2023-11-21T10:17:49;98712.41;;;9.04;100.00
52745;BME280;38637;49.984;20.426;2023-11-21T10:20:14;98719.75;;;9.03;100.00
52745;BME280;38637;49.984;20.426;2023-11-21T10:22:41;98720.56;;;9.04;100.00
52745;BME280;38637;49.984;20.426;2023-11-21T10:25:08;98711.03;;;9.01;100.00
52745;BME280;38637;49.984;20.426;2023-11-21T10:27:34;98719.22;;;9.11;100.00
52745;BME280;38637;49.984;20.426;2023-11-21T10:30:02;98708.59;;;9.05;100.00
52745;BME280;38637;49.984;20.426;2023-11-21T10:32:28;98711.34;;;9.10;100.00
52745;BME280;38637;49.984;20.426;2023-11-21T10:34:57;98716.50;;;9.11;100.00
52745;BME280;38637;49.984;20.426;2023-11-21T10:37:23;98711.31;;;9.15;100.00
52745;BME280;38637;49.984;20.426;2023-11-21T10:39:48;98714.63;;;9.17;100.00
52745;BME280;38637;49.984;20.426;2023-11-21T10:42:14;98708.88;;;9.08;100.00
52745;BME280;38637;49.984;20.426;2023-11-21T10:44:41;98719.75;;;9.08;100.00
52745;BME280;38637;49.984;20.426;2023-11-21T10:47:09;98715.91;;;8.99;100.00
52745;BME280;38637;49.984;20.426;2023-11-21T10:49:37;98724.63;;;8.91;100.00
52745;BME280;38637;49.984;20.426;2023-11-21T10:52:03;98718.31;;;8.90;100.00
52745;BME280;38637;49.984;20.426;2023-11-21T10:54:30;98721.34;;;8.89;100.00
52745;BME280;38637;49.984;20.426;2023-11-21T10:57:00;98720.25;;;8.90;100.00
52745;BME280;38637;49.984;20.426;2023-11-21T10:59:30;98710.97;;;8.86;100.00
52745;BME280;38637;49.984;20.426;2023-11-21T11:01:57;98715.06;;;8.88;100.00
52745;BME280;38637;49.984;20.426;2023-11-21T11:04:25;98716.44;;;8.91;100.00
52745;BME280;38637;49.984;20.426;2023-11-21T11:06:57;98722.44;;;8.93;100.00
52745;BME280;38637;49.984;20.426;2023-11-21T11:09:23;98717.53;;;8.95;100.00
52745;BME280;38637;49.984;20.426;2023-11-21T11:11:49;98718.63;;;8.99;100.00
52745;BME280;38637;49.984;20.426;2023-11-21T11:14:16;98713.72;;;8.96;100.00
52745;BME280;38637;49.984;20.426;2023-11-21T11:16:45;98718.63;;;8.94;100.00
52745;BME280;38637;49.984;20.426;2023-11-21T11:19:10;98719.44;;;8.89;100.00
52745;BME280;38637;49.984;20.426;2023-11-21T11:24:47;98718.88;;;8.87;100.00
52745;BME280;38637;49.984;20.426;2023-11-21T11:38:02;98716.41;;;8.86;100.00
52745;BME280;38637;49.984;20.426;2023-11-21T11:41:03;98717.53;;;8.95;100.00
52745;BME280;38637;49.984;20.426;2023-11-21T11:43:29;98716.72;;;9.00;100.00
52745;BME280;38637;49.984;20.426;2023-11-21T11:45:58;98718.69;;;9.09;100.00
52745;BME280;38637;49.984;20.426;2023-11-21T11:48:25;98717.91;;;9.19;100.00
52745;BME280;38637;49.984;20.426;2023-11-21T11:51:04;98719.81;;;9.29;100.00
52745;BME280;38637;49.984;20.426;2023-11-21T11:53:35;98718.19;;;9.33;100.00
52745;BME280;38637;49.984;20.426;2023-11-21T11:56:23;98710.00;;;9.33;100.00
52745;BME280;38637;49.984;20.426;2023-11-21T11:58:54;98707.56;;;9.31;100.00
52745;BME280;38637;49.984;20.426;2023-11-21T12:01:21;98718.19;;;9.33;100.00
52745;BME280;38637;49.984;20.426;2023-11-21T12:06:36;98716.00;;;9.25;100.00
52745;BME280;38637;49.984;20.426;2023-11-21T12:09:02;98729.59;;;9.19;100.00
52745;BME280;38637;49.984;20.426;2023-11-21T12:11:31;98717.59;;;9.10;100.00
52745;BME280;38637;49.984;20.426;2023-11-21T12:13:58;98727.94;;;9.13;100.00
52745;BME280;38637;49.984;20.426;2023-11-21T12:16:25;98729.84;;;9.08;100.00
52745;BME280;38637;49.984;20.426;2023-11-21T12:18:53;98730.38;;;9.05;100.00
52745;BME280;38637;49.984;20.426;2023-11-21T12:21:22;98733.91;;;9.05;100.00
52745;BME280;38637;49.984;20.426;2023-11-21T12:23:47;98736.09;;;9.08;100.00
52745;BME280;38637;49.984;20.426;2023-11-21T12:26:13;98737.44;;;9.06;100.00
52745;BME280;38637;49.984;20.426;2023-11-21T12:28:39;98733.63;;;9.02;100.00
52745;BME280;38637;49.984;20.426;2023-11-21T12:31:05;98743.44;;;9.03;100.00
52745;BME280;38637;49.984;20.426;2023-11-21T12:33:34;98743.72;;;9.01;100.00
52745;BME280;38637;49.984;20.426;2023-11-21T12:36:00;98741.78;;;8.96;100.00
52745;BME280;38637;49.984;20.426;2023-11-21T12:38:33;98740.44;;;8.94;100.00
52745;BME280;38637;49.984;20.426;2023-11-21T12:41:00;98743.13;;;8.89;100.00
52745;BME280;38637;49.984;20.426;2023-11-21T12:43:25;98738.72;;;8.83;100.00
52745;BME280;38637;49.984;20.426;2023-11-21T12:45:50;98732.19;;;8.79;100.00
52745;BME280;38637;49.984;20.426;2023-11-21T12:48:18;98735.97;;;8.72;100.00
52745;BME280;38637;49.984;20.426;2023-11-21T12:50:49;98734.59;;;8.75;100.00
52745;BME280;38637;49.984;20.426;2023-11-21T12:53:18;98744.97;;;8.73;100.00
52745;BME280;38637;49.984;20.426;2023-11-21T12:55:44;98744.16;;;8.72;100.00
52745;BME280;38637;49.984;20.426;2023-11-21T12:58:15;98733.19;;;8.62;100.00
52745;BME280;38637;49.984;20.426;2023-11-21T13:00:48;98737.28;;;8.65;100.00
52745;BME280;38637;49.984;20.426;2023-11-21T13:03:15;98744.97;;;8.73;100.00
52745;BME280;38637;49.984;20.426;2023-11-21T13:05:51;98746.31;;;8.70;100.00